If you wish to contribute or participate in the discussions about articles you are invited to join SKYbrary as a registered user

 Actions

Eulogio Sánchez Airport

From SKYbrary Wiki

SCTB
Airport
ICAO: SCTB
Summary
Name Eulogio Sánchez Airport
Region South America and Caribbean
Territory Chile CL.gif
Location Santiago, Region Metropolitana
Serving Santiago
Elevation 648.919 m
2,129 ft
2,129 ft648.919 m
Type small airport
Coordinates 33° 27' 22.60" S, 70° 32' 48.00" W
Runways
Designator Length Width Surface ROPS
1/19 1000 m3,280.84 ft
30 m98.425 ft
ASP /


METAR
Observation SCTB 141700Z 21007KT 7000 BKN130 BKN200 22/07 Q1019
Station EULOGIO SANCHEZ
Date/Time 14 December 2019 17:00:00
Wind direction 210°
Wind speed 07 kts
Lowest cloud amount broken clouds
Temperature 22°C
Dew point 7°C
Humidity 37%
QNH 1019 hPa
Weather condition n/a

Also known as Tobalaba airport, Eulogio Sanchez airport is a private airport located on the eastern edge of Santiago, Chile, in La Reina.

Climatology

Cool semi-arid climate (Köppen climate classification BSk)

Maps

Terrain

Loading map...

Airport Layout

Loading map...


Accidents & Serious Incidents at or in vicinity of SCTB

None on SKYbrary